createdAt,value
2019-02-21T00:01:31.970Z,101265.92
2019-02-21T00:03:59.902Z,101271.32
2019-02-21T00:06:27.691Z,101272.13
2019-02-21T00:08:55.451Z,101266.80
2019-02-21T00:11:23.409Z,101265.14
2019-02-21T00:13:51.135Z,101270.01
2019-02-21T00:16:19.072Z,101271.37
2019-02-21T00:18:46.864Z,101265.87
2019-02-21T00:21:14.671Z,101269.89
2019-02-21T00:23:42.422Z,101261.67
2019-02-21T00:26:10.356Z,101265.37
2019-02-21T00:28:38.100Z,101272.41
2019-02-21T00:31:06.081Z,101270.58
2019-02-21T00:33:33.952Z,101273.95
2019-02-21T00:36:01.724Z,101271.77
2019-02-21T00:38:29.476Z,101280.30
2019-02-21T00:40:57.383Z,101274.61
2019-02-21T00:43:25.098Z,101274.78
2019-02-21T00:45:53.038Z,101278.30
2019-02-21T00:48:20.780Z,101270.95
2019-02-21T00:50:48.552Z,101282.81
2019-02-21T00:53:16.340Z,101278.47
2019-02-21T00:55:44.262Z,101285.16
2019-02-21T00:58:11.965Z,101286.02
2019-02-21T01:00:46.632Z,101282.66
2019-02-21T01:03:09.336Z,101278.64
2019-02-21T01:05:37.127Z,101279.30
2019-02-21T01:08:05.705Z,101271.95
2019-02-21T01:10:33.635Z,101284.65
2019-02-21T01:13:01.382Z,101282.30
2019-02-21T01:15:29.120Z,101290.68
2019-02-21T01:17:57.164Z,101289.02
2019-02-21T01:20:24.927Z,101295.36
2019-02-21T01:22:52.863Z,101295.69
2019-02-21T01:25:20.598Z,101293.34
2019-02-21T01:27:48.413Z,101290.69
2019-02-21T01:30:16.173Z,101300.23
2019-02-21T01:32:44.123Z,101292.70
2019-02-21T01:35:11.853Z,101298.05
2019-02-21T01:37:39.685Z,101292.68
2019-02-21T01:40:07.475Z,101289.67
2019-02-21T01:42:35.424Z,101287.00
2019-02-21T01:45:03.326Z,101287.48
2019-02-21T01:47:31.089Z,101286.48
2019-02-21T01:49:58.841Z,101279.62
2019-02-21T01:52:26.626Z,101283.30
2019-02-21T01:54:54.399Z,101269.41
2019-02-21T01:57:22.344Z,101275.09
2019-02-21T01:59:50.101Z,101262.71
2019-02-21T02:02:17.861Z,101264.20
2019-02-21T02:04:45.603Z,101263.86
2019-02-21T02:07:13.375Z,101261.84
2019-02-21T02:09:41.123Z,101256.98
2019-02-21T02:12:08.896Z,101254.63
2019-02-21T02:14:36.689Z,101254.48
2019-02-21T02:17:04.720Z,101247.78
2019-02-21T02:19:33.293Z,101250.46
2019-02-21T02:22:01.220Z,101247.14
2019-02-21T02:24:29.085Z,101250.66
2019-02-21T02:26:57.052Z,101248.50
2019-02-21T02:29:24.844Z,101252.50
2019-02-21T02:31:52.744Z,101250.84
2019-02-21T02:34:20.582Z,101246.83
2019-02-21T02:36:48.519Z,101247.84
2019-02-21T02:39:16.595Z,101239.15
2019-02-21T02:41:44.525Z,101249.84
2019-02-21T02:44:12.456Z,101248.52
2019-02-21T02:46:40.370Z,101253.52
2019-02-21T02:49:08.140Z,101250.86
2019-02-21T02:51:36.055Z,101249.69
2019-02-21T02:54:03.974Z,101236.45
2019-02-21T02:56:31.890Z,101243.47
2019-02-21T02:58:59.686Z,101236.80
2019-02-21T03:01:34.698Z,101242.13
2019-02-21T03:03:57.112Z,101238.95
2019-02-21T03:06:24.999Z,101238.62
2019-02-21T03:08:52.809Z,101231.59
2019-02-21T03:11:20.511Z,101229.75
2019-02-21T03:13:48.290Z,101237.28
2019-02-21T03:16:16.121Z,101235.12
2019-02-21T03:18:43.882Z,101241.30
2019-02-21T03:21:11.607Z,101244.80
2019-02-21T03:23:39.539Z,101244.64
2019-02-21T03:26:07.297Z,101248.31
2019-02-21T03:28:35.212Z,101250.35
2019-02-21T03:31:02.971Z,101248.49
2019-02-21T03:33:30.735Z,101254.17
2019-02-21T03:35:58.455Z,101238.30
2019-02-21T03:38:26.217Z,101247.00
2019-02-21T03:40:53.950Z,101246.17
2019-02-21T03:43:21.898Z,101242.97
2019-02-21T03:45:49.641Z,101250.85
2019-02-21T03:48:17.539Z,101246.33
2019-02-21T03:50:45.303Z,101253.84
2019-02-21T03:53:13.300Z,101258.56
2019-02-21T03:55:41.008Z,101256.52
2019-02-21T03:58:08.946Z,101253.17
2019-02-21T04:00:36.730Z,101263.55
2019-02-21T04:03:04.461Z,101263.22
2019-02-21T04:05:32.218Z,101267.39
2019-02-21T04:08:00.007Z,101270.25
2019-02-21T04:10:27.815Z,101275.78
2019-02-21T04:12:55.618Z,101273.75
2019-02-21T04:15:23.410Z,101271.72
2019-02-21T04:17:51.181Z,101273.41
2019-02-21T04:20:19.223Z,101266.39
2019-02-21T04:22:47.228Z,101272.72
2019-02-21T04:25:14.998Z,101267.83
2019-02-21T04:27:42.912Z,101269.55
2019-02-21T04:30:10.764Z,101267.50
2019-02-21T04:32:38.696Z,101261.62
2019-02-21T04:35:06.514Z,101259.29
2019-02-21T04:37:34.266Z,101253.78
2019-02-21T04:40:02.044Z,101257.59
2019-02-21T04:42:29.816Z,101263.59
2019-02-21T04:44:57.740Z,101258.05
2019-02-21T04:47:25.501Z,101258.73
2019-02-21T04:49:53.322Z,101259.08
2019-02-21T04:52:21.031Z,101252.02
2019-02-21T04:54:49.012Z,101256.18
2019-02-21T04:57:16.788Z,101247.29
2019-02-21T04:59:44.698Z,101250.46
2019-02-21T05:02:12.447Z,101253.32
2019-02-21T05:04:40.211Z,101254.39
2019-02-21T05:07:08.072Z,101244.65
2019-02-21T05:09:35.871Z,101248.14
2019-02-21T05:12:03.660Z,101249.66
2019-02-21T05:14:31.448Z,101248.13
2019-02-21T05:17:00.706Z,101251.00
2019-02-21T05:19:28.566Z,101256.18
2019-02-21T05:21:56.324Z,101252.48
2019-02-21T05:24:24.391Z,101254.70
2019-02-21T05:27:00.291Z,101249.83
2019-02-21T05:29:28.067Z,101248.45
2019-02-21T05:32:13.610Z,101248.81
2019-02-21T05:35:04.026Z,101246.08
2019-02-21T05:37:54.366Z,101249.47
2019-02-21T05:40:42.175Z,101247.82
2019-02-21T05:43:41.679Z,101254.34
2019-02-21T05:46:34.930Z,101247.78
2019-02-21T05:49:25.460Z,101242.77
2019-02-21T05:52:07.579Z,101244.97
2019-02-21T05:54:56.788Z,101245.95
2019-02-21T05:57:52.783Z,101250.55
2019-02-21T06:00:58.422Z,101243.98
2019-02-21T06:04:04.021Z,101243.97
2019-02-21T06:06:56.158Z,101245.46
2019-02-21T06:09:45.204Z,101251.84
2019-02-21T06:12:32.790Z,101248.98
2019-02-21T06:14:57.103Z,101254.97
2019-02-21T06:17:40.989Z,101256.98
2019-02-21T06:20:40.510Z,101261.95
2019-02-21T06:23:25.043Z,101258.45
2019-02-21T06:26:18.288Z,101263.28
2019-02-21T06:28:59.638Z,101261.09
2019-02-21T06:31:27.566Z,101261.27
2019-02-21T06:33:55.333Z,101258.36
2019-02-21T06:36:23.324Z,101254.55
2019-02-21T06:38:51.092Z,101256.92
2019-02-21T06:41:18.840Z,101264.94
2019-02-21T06:43:46.596Z,101269.94
2019-02-21T06:46:14.425Z,101269.44
2019-02-21T06:48:42.173Z,101275.13
2019-02-21T06:51:09.984Z,101273.55
2019-02-21T06:53:37.743Z,101280.41
2019-02-21T06:56:05.563Z,101281.27
2019-02-21T06:58:33.279Z,101280.56
2019-02-21T07:01:01.256Z,101280.89
2019-02-21T07:03:29.172Z,101273.80
2019-02-21T07:05:56.991Z,101276.12
2019-02-21T07:08:25.239Z,101276.95
2019-02-21T07:10:53.313Z,101276.23
2019-02-21T07:13:26.719Z,101281.31
2019-02-21T07:15:50.793Z,101278.74
2019-02-21T07:18:18.554Z,101280.75
2019-02-21T07:20:46.307Z,101280.63
2019-02-21T07:23:14.084Z,101283.56
2019-02-21T07:25:50.722Z,101281.45
2019-02-21T07:28:18.557Z,101282.23
2019-02-21T07:30:46.610Z,101285.36
2019-02-21T07:33:14.530Z,101284.16
2019-02-21T07:35:42.263Z,101287.58
2019-02-21T07:38:10.215Z,101280.13
2019-02-21T07:40:37.997Z,101278.30
2019-02-21T07:43:05.786Z,101281.07
2019-02-21T07:45:36.254Z,101281.81
2019-02-21T07:48:03.429Z,101293.25
2019-02-21T07:50:31.563Z,101293.06
2019-02-21T07:53:02.552Z,101303.60
2019-02-21T07:55:29.169Z,101302.17
2019-02-21T07:57:57.141Z,101301.89
2019-02-21T08:00:24.914Z,101306.05
2019-02-21T08:02:52.657Z,101302.56
2019-02-21T08:05:20.448Z,101301.34
2019-02-21T08:07:49.896Z,101298.50
2019-02-21T08:10:17.842Z,101305.36
2019-02-21T08:12:45.784Z,101304.43
2019-02-21T08:15:13.834Z,101308.90
2019-02-21T08:17:44.137Z,101305.02
2019-02-21T08:20:12.008Z,101309.53
2019-02-21T08:22:41.206Z,101311.68
2019-02-21T08:25:09.344Z,101305.14
2019-02-21T08:27:37.310Z,101312.19
2019-02-21T08:30:07.713Z,101308.41
2019-02-21T08:33:13.282Z,101307.40
2019-02-21T08:35:41.176Z,101314.34
2019-02-21T08:38:09.102Z,101304.09
2019-02-21T08:40:36.898Z,101309.88
2019-02-21T08:43:05.664Z,101303.72
2019-02-21T08:45:33.444Z,101306.41
2019-02-21T08:48:01.222Z,101317.64
2019-02-21T08:50:29.028Z,101320.73
2019-02-21T08:52:56.808Z,101321.88
2019-02-21T08:55:24.572Z,101325.77
2019-02-21T08:57:52.366Z,101322.53
2019-02-21T09:00:20.152Z,101328.06
2019-02-21T09:02:47.904Z,101328.13
2019-02-21T09:05:16.011Z,101326.44
2019-02-21T09:07:46.318Z,101325.88
2019-02-21T09:10:13.840Z,101329.53
2019-02-21T09:12:41.798Z,101330.62
2019-02-21T09:15:12.907Z,101326.84
2019-02-21T09:17:42.679Z,101326.33
2019-02-21T09:20:10.629Z,101331.94
2019-02-21T09:22:38.542Z,101333.91
2019-02-21T09:25:09.268Z,101341.44
2019-02-21T09:27:37.078Z,101339.84
2019-02-21T09:30:08.048Z,101339.74
2019-02-21T09:32:35.927Z,101335.76
2019-02-21T09:35:03.767Z,101328.10
2019-02-21T09:37:31.569Z,101330.05
2019-02-21T09:39:59.304Z,101330.24
2019-02-21T09:42:27.165Z,101334.09
2019-02-21T09:44:54.939Z,101329.29
2019-02-21T09:47:22.730Z,101335.31
2019-02-21T09:49:50.475Z,101335.88
2019-02-21T09:52:18.255Z,101332.42
2019-02-21T09:54:47.459Z,101330.81
2019-02-21T09:57:15.523Z,101328.20
2019-02-21T09:59:43.325Z,101320.97
2019-02-21T10:02:11.190Z,101329.38
2019-02-21T10:04:38.979Z,101329.31
2019-02-21T10:07:06.768Z,101331.50
2019-02-21T10:09:34.533Z,101330.88
2019-02-21T10:12:02.632Z,101342.08
2019-02-21T10:14:30.566Z,101344.34
2019-02-21T10:16:58.411Z,101342.84
2019-02-21T10:19:26.272Z,101340.75
2019-02-21T10:21:54.073Z,101343.14
2019-02-21T10:24:21.906Z,101344.30
2019-02-21T10:26:49.735Z,101337.92
2019-02-21T10:29:18.270Z,101338.76
2019-02-21T10:31:46.032Z,101330.88
2019-02-21T10:34:13.822Z,101330.89
2019-02-21T10:36:41.609Z,101321.79
2019-02-21T10:39:10.571Z,101317.55
2019-02-21T10:41:42.073Z,101316.23
2019-02-21T10:44:09.911Z,101319.98
2019-02-21T10:46:37.703Z,101320.91
2019-02-21T10:49:05.462Z,101313.44
2019-02-21T10:51:33.273Z,101318.00
2019-02-21T10:54:01.069Z,101315.70
2019-02-21T10:56:28.850Z,101314.67
2019-02-21T10:58:56.655Z,101308.42
2019-02-21T11:01:24.436Z,101308.06
2019-02-21T11:03:53.179Z,101312.13
2019-02-21T11:06:20.961Z,101298.61
2019-02-21T11:08:48.756Z,101299.33
2019-02-21T11:11:17.323Z,101294.63
2019-02-21T11:13:45.145Z,101293.63
2019-02-21T11:16:13.603Z,101283.94
2019-02-21T11:18:41.693Z,101286.39
2019-02-21T11:21:09.451Z,101276.77
2019-02-21T11:23:40.651Z,101268.22
2019-02-21T11:26:08.459Z,101275.11
2019-02-21T11:28:36.443Z,101275.74
2019-02-21T11:31:04.215Z,101266.22
2019-02-21T11:33:33.420Z,101275.63
2019-02-21T11:36:01.690Z,101271.37
2019-02-21T11:38:29.432Z,101264.89
2019-02-21T11:40:57.557Z,101260.16
2019-02-21T11:43:25.348Z,101249.88
2019-02-21T11:45:55.206Z,101241.28
2019-02-21T11:48:22.823Z,101235.66
2019-02-21T11:50:50.613Z,101222.45
2019-02-21T11:53:18.365Z,101210.23
2019-02-21T11:55:46.113Z,101212.54
2019-02-21T11:58:13.921Z,101211.11
2019-02-21T12:00:41.750Z,101212.36
2019-02-21T12:03:09.815Z,101207.73
2019-02-21T12:05:39.877Z,101205.34
2019-02-21T12:08:09.248Z,101206.00
2019-02-21T12:10:37.103Z,101216.89
2019-02-21T12:13:04.878Z,101216.55
2019-02-21T12:15:32.668Z,101206.72
2019-02-21T12:18:00.453Z,101208.84
2019-02-21T12:20:28.376Z,101216.00
2019-02-21T12:22:56.251Z,101204.92
2019-02-21T12:25:24.066Z,101213.69
2019-02-21T12:27:51.859Z,101206.83
2019-02-21T12:30:19.808Z,101201.88
2019-02-21T12:32:47.698Z,101202.81
2019-02-21T12:35:15.511Z,101203.80
2019-02-21T12:37:43.336Z,101199.28
2019-02-21T12:40:14.824Z,101203.88
2019-02-21T12:42:42.631Z,101194.08
2019-02-21T12:45:13.386Z,101190.95
2019-02-21T12:47:51.002Z,101180.24
2019-02-21T12:50:13.050Z,101180.44
2019-02-21T12:52:40.837Z,101187.69
2019-02-21T12:55:09.238Z,101191.86
2019-02-21T12:57:37.062Z,101199.02
2019-02-21T13:00:09.119Z,101184.41
2019-02-21T13:02:36.966Z,101183.47
2019-02-21T13:05:05.192Z,101184.33
2019-02-21T13:07:32.983Z,101182.22
2019-02-21T13:10:00.742Z,101175.95
2019-02-21T13:12:28.602Z,101176.28
2019-02-21T13:14:56.399Z,101185.13
2019-02-21T13:17:24.256Z,101189.89
2019-02-21T13:19:52.007Z,101191.19
2019-02-21T13:22:19.937Z,101192.03
2019-02-21T13:24:48.047Z,101192.12
2019-02-21T13:27:15.874Z,101184.07
2019-02-21T13:29:43.681Z,101189.29
2019-02-21T13:32:11.468Z,101197.98
2019-02-21T13:34:39.246Z,101199.59
2019-02-21T13:37:07.073Z,101196.94
2019-02-21T13:39:34.810Z,101202.92
2019-02-21T13:42:02.591Z,101207.13
2019-02-21T13:44:30.366Z,101200.69
2019-02-21T13:46:58.167Z,101195.64
2019-02-21T13:49:25.923Z,101201.72
2019-02-21T13:51:53.735Z,101200.45
2019-02-21T13:54:21.499Z,101197.39
2019-02-21T13:56:49.533Z,101205.73
2019-02-21T13:59:17.253Z,101198.07
2019-02-21T14:01:45.038Z,101206.11
2019-02-21T14:04:12.789Z,101210.09
2019-02-21T14:06:40.584Z,101215.23
2019-02-21T14:09:08.352Z,101205.54
2019-02-21T14:11:36.282Z,101197.73
2019-02-21T14:14:04.101Z,101190.86
2019-02-21T14:16:31.919Z,101195.53
2019-02-21T14:18:59.753Z,101193.75
2019-02-21T14:21:27.520Z,101193.98
2019-02-21T14:23:55.651Z,101182.11
2019-02-21T14:26:23.410Z,101185.74
2019-02-21T14:28:51.631Z,101190.47
2019-02-21T14:31:19.472Z,101188.73
2019-02-21T14:33:47.256Z,101191.63
2019-02-21T14:36:18.140Z,101189.14
2019-02-21T14:38:45.002Z,101192.89
2019-02-21T14:41:18.529Z,101187.34
2019-02-21T14:43:46.363Z,101185.52
2019-02-21T14:46:14.160Z,101195.73
2019-02-21T14:48:42.019Z,101190.05
2019-02-21T14:51:09.833Z,101188.99
2019-02-21T14:53:37.575Z,101186.98
2019-02-21T14:56:05.385Z,101191.93
2019-02-21T14:58:34.125Z,101195.59
2019-02-21T15:01:01.877Z,101193.65
2019-02-21T15:03:29.727Z,101183.73
2019-02-21T15:05:58.114Z,101183.88
2019-02-21T15:08:26.020Z,101186.48
2019-02-21T15:10:53.859Z,101185.52
2019-02-21T15:13:21.723Z,101183.92
2019-02-21T15:15:49.489Z,101189.16
2019-02-21T15:18:17.329Z,101194.39
2019-02-21T15:20:45.120Z,101199.73
2019-02-21T15:23:12.877Z,101192.41
2019-02-21T15:25:40.692Z,101192.66
2019-02-21T15:28:08.800Z,101188.45
2019-02-21T15:30:38.943Z,101195.61
2019-02-21T15:33:07.093Z,101187.45
2019-02-21T15:35:34.884Z,101185.86
2019-02-21T15:38:02.717Z,101189.89
2019-02-21T15:40:30.482Z,101186.16
2019-02-21T15:42:58.295Z,101193.13
2019-02-21T15:45:26.115Z,101192.63
2019-02-21T15:47:53.932Z,101185.75
2019-02-21T15:50:21.829Z,101189.92
2019-02-21T15:52:51.619Z,101193.13
2019-02-21T15:55:19.441Z,101191.45
2019-02-21T15:57:47.226Z,101194.45
2019-02-21T16:00:16.420Z,101199.98
2019-02-21T16:02:44.287Z,101200.41
2019-02-21T16:05:12.104Z,101201.75
2019-02-21T16:07:39.976Z,101206.72
2019-02-21T16:10:11.061Z,101204.66
2019-02-21T16:12:39.003Z,101210.07
2019-02-21T16:15:08.859Z,101212.39
2019-02-21T16:17:37.056Z,101216.84
2019-02-21T16:20:07.481Z,101217.81
2019-02-21T16:22:35.268Z,101225.62
2019-02-21T16:25:03.716Z,101231.62
2019-02-21T16:27:31.513Z,101232.34
2019-02-21T16:29:59.308Z,101228.80
2019-02-21T16:32:27.182Z,101229.17
2019-02-21T16:34:54.947Z,101227.45
2019-02-21T16:37:22.773Z,101230.86
2019-02-21T16:39:50.594Z,101231.17
2019-02-21T16:42:18.375Z,101240.68
2019-02-21T16:44:46.175Z,101239.09
2019-02-21T16:47:13.928Z,101241.12
2019-02-21T16:49:41.798Z,101240.20
2019-02-21T16:52:09.658Z,101247.12
2019-02-21T16:54:37.469Z,101249.17
2019-02-21T16:57:05.250Z,101250.56
2019-02-21T16:59:33.189Z,101250.42
2019-02-21T17:02:00.961Z,101251.91
2019-02-21T17:04:28.879Z,101245.97
2019-02-21T17:06:56.808Z,101255.72
2019-02-21T17:09:24.617Z,101255.18
2019-02-21T17:11:52.406Z,101256.63
2019-02-21T17:14:20.194Z,101256.42
2019-02-21T17:16:47.950Z,101262.16
2019-02-21T17:19:15.925Z,101264.25
2019-02-21T17:21:43.718Z,101254.06
2019-02-21T17:24:11.710Z,101257.30
2019-02-21T17:26:39.494Z,101250.13
2019-02-21T17:29:07.314Z,101246.95
2019-02-21T17:31:37.226Z,101246.27
2019-02-21T17:34:04.866Z,101249.81
2019-02-21T17:36:34.617Z,101239.95
2019-02-21T17:39:02.650Z,101235.47
2019-02-21T17:41:30.437Z,101239.30
2019-02-21T17:43:58.214Z,101240.81
2019-02-21T17:46:26.027Z,101252.38
2019-02-21T17:48:53.800Z,101255.25
2019-02-21T17:51:21.577Z,101249.25
2019-02-21T17:53:49.320Z,101243.37
2019-02-21T17:56:17.090Z,101250.09
2019-02-21T17:58:44.851Z,101243.04
2019-02-21T18:01:12.665Z,101250.56
2019-02-21T18:03:40.441Z,101250.66
2019-02-21T18:06:08.286Z,101255.52
2019-02-21T18:08:36.077Z,101247.66
2019-02-21T18:11:03.862Z,101248.30
2019-02-21T18:13:31.684Z,101247.25
2019-02-21T18:15:59.639Z,101243.95
2019-02-21T18:18:27.399Z,101237.84
2019-02-21T18:20:55.154Z,101247.22
2019-02-21T18:23:22.923Z,101241.99
2019-02-21T18:26:02.934Z,101236.56
2019-02-21T18:28:30.671Z,101242.94
2019-02-21T18:30:58.451Z,101244.96
2019-02-21T18:33:26.267Z,101247.49
2019-02-21T18:35:54.082Z,101250.09
2019-02-21T18:38:21.856Z,101247.22
2019-02-21T18:40:49.656Z,101252.58
2019-02-21T18:43:17.429Z,101249.17
2019-02-21T18:45:45.329Z,101252.78
2019-02-21T18:48:13.065Z,101256.06
2019-02-21T18:50:40.915Z,101257.07
2019-02-21T18:53:08.729Z,101260.65
2019-02-21T18:55:36.507Z,101257.78
2019-02-21T18:58:04.300Z,101264.93
2019-02-21T19:00:32.101Z,101260.98
2019-02-21T19:02:59.852Z,101263.04
2019-02-21T19:05:35.383Z,101260.10
2019-02-21T19:08:04.183Z,101258.59
2019-02-21T19:10:27.453Z,101258.35
2019-02-21T19:12:55.323Z,101250.86
2019-02-21T19:15:24.070Z,101254.41
2019-02-21T19:17:51.842Z,101254.30
2019-02-21T19:20:19.700Z,101255.62
2019-02-21T19:22:48.742Z,101252.89
2019-02-21T19:25:17.779Z,101253.26
2019-02-21T19:27:45.811Z,101255.02
2019-02-21T19:30:27.415Z,101252.89
2019-02-21T19:32:55.343Z,101254.69
2019-02-21T19:35:23.403Z,101265.06
2019-02-21T19:37:51.185Z,101258.34
2019-02-21T19:40:19.066Z,101261.45
2019-02-21T19:42:46.931Z,101260.00
2019-02-21T19:45:14.995Z,101260.14
2019-02-21T19:47:42.844Z,101260.44
2019-02-21T19:50:11.112Z,101260.10
2019-02-21T19:52:38.905Z,101254.37
2019-02-21T19:55:06.709Z,101254.50
2019-02-21T19:57:34.499Z,101265.73
2019-02-21T20:00:02.393Z,101266.81
2019-02-21T20:02:30.417Z,101259.12
2019-02-21T20:04:58.220Z,101263.89
2019-02-21T20:07:26.057Z,101267.59
2019-02-21T20:09:53.804Z,101269.45
2019-02-21T20:12:21.683Z,101266.09
2019-02-21T20:14:49.433Z,101274.44
2019-02-21T20:17:17.366Z,101260.41
2019-02-21T20:19:45.111Z,101274.44
2019-02-21T20:22:13.746Z,101277.19
2019-02-21T20:24:41.536Z,101273.64
2019-02-21T20:27:09.402Z,101277.59
2019-02-21T20:29:37.229Z,101280.19
2019-02-21T20:32:05.062Z,101275.09
2019-02-21T20:34:32.880Z,101288.23
2019-02-21T20:37:00.632Z,101287.42
2019-02-21T20:39:28.408Z,101281.30
2019-02-21T20:41:56.271Z,101285.88
2019-02-21T20:44:24.051Z,101286.97
2019-02-21T20:46:51.788Z,101278.92
2019-02-21T20:49:19.568Z,101274.67
2019-02-21T20:51:47.325Z,101278.14
2019-02-21T20:54:15.121Z,101279.53
2019-02-21T20:56:42.940Z,101278.88
2019-02-21T20:59:10.725Z,101284.39
2019-02-21T21:01:38.579Z,101289.13
2019-02-21T21:04:06.377Z,101289.22
2019-02-21T21:06:34.130Z,101291.22
2019-02-21T21:09:02.101Z,101295.32
2019-02-21T21:11:29.878Z,101289.92
2019-02-21T21:13:57.919Z,101298.52
2019-02-21T21:16:25.661Z,101292.82
2019-02-21T21:18:53.443Z,101289.88
2019-02-21T21:21:21.247Z,101298.72
2019-02-21T21:23:49.173Z,101296.36
2019-02-21T21:26:17.051Z,101299.95
2019-02-21T21:28:44.903Z,101301.03
2019-02-21T21:31:15.247Z,101303.55
2019-02-21T21:33:42.345Z,101310.29
2019-02-21T21:36:10.150Z,101313.88
2019-02-21T21:38:37.949Z,101315.53
2019-02-21T21:41:05.751Z,101314.98
2019-02-21T21:43:33.502Z,101310.84
2019-02-21T21:46:01.277Z,101318.76
2019-02-21T21:48:29.081Z,101320.38
2019-02-21T21:50:56.886Z,101318.88
2019-02-21T21:53:24.657Z,101312.08
2019-02-21T21:55:52.461Z,101322.66
2019-02-21T21:58:20.253Z,101320.11
2019-02-21T22:00:48.043Z,101322.09
2019-02-21T22:03:15.812Z,101313.94
2019-02-21T22:05:43.640Z,101310.98
2019-02-21T22:08:11.416Z,101326.20
2019-02-21T22:10:39.221Z,101322.80
2019-02-21T22:13:07.113Z,101322.36
2019-02-21T22:15:34.931Z,101321.83
2019-02-21T22:18:02.702Z,101320.67
2019-02-21T22:20:30.491Z,101316.63
2019-02-21T22:22:58.235Z,101315.48
2019-02-21T22:25:25.997Z,101317.85
2019-02-21T22:27:53.797Z,101314.52
2019-02-21T22:30:21.594Z,101315.02
2019-02-21T22:32:49.352Z,101328.45
2019-02-21T22:35:17.087Z,101321.20
2019-02-21T22:37:44.881Z,101323.38
2019-02-21T22:40:12.902Z,101323.68
2019-02-21T22:42:40.684Z,101326.97
2019-02-21T22:45:08.844Z,101329.16
2019-02-21T22:47:36.631Z,101332.04
2019-02-21T22:50:06.288Z,101328.74
2019-02-21T22:52:34.030Z,101330.17
2019-02-21T22:55:09.797Z,101328.84
2019-02-21T22:57:31.470Z,101328.19
2019-02-21T22:59:59.235Z,101328.58
2019-02-21T23:02:27.750Z,101338.11
2019-02-21T23:05:55.526Z,101343.69
2019-02-21T23:08:52.623Z,101339.72
2019-02-21T23:11:20.720Z,101347.88
2019-02-21T23:13:48.694Z,101341.97
2019-02-21T23:16:16.693Z,101340.04
2019-02-21T23:18:45.102Z,101341.89
2019-02-21T23:21:13.033Z,101344.28
2019-02-21T23:23:40.847Z,101353.32
2019-02-21T23:26:09.916Z,101349.45
2019-02-21T23:28:37.645Z,101348.77
2019-02-21T23:31:05.568Z,101341.22
2019-02-21T23:33:36.090Z,101346.31
2019-02-21T23:36:03.926Z,101353.77
2019-02-21T23:38:31.668Z,101352.31
2019-02-21T23:40:59.576Z,101355.77
2019-02-21T23:43:27.384Z,101349.75
2019-02-21T23:45:55.125Z,101356.08
2019-02-21T23:48:22.890Z,101359.81
2019-02-21T23:50:50.634Z,101367.39
2019-02-21T23:53:18.426Z,101363.83
2019-02-21T23:55:46.186Z,101367.75
2019-02-21T23:58:13.955Z,101368.75
